Thessaloniki, Greece

9:23 PM EEST on August 30, 2014 (GMT +0300)
Thessaloniki Airport | Change Station
CLOSE
Current Station
Airport
Location: Thessaloniki Airport,
Elevation: 13 ft
Nearby Weather Stations

Elev 13 ft 40.52 °N, 22.97 °E | Updated 23 minutes ago

Scattered Clouds
Scattered Clouds
78 °F
Feels Like 78 °F
N
8
Wind Variable Wind from SSE
Gusts mph

Today
High -- | Low -- °F
--% Chance of Precip.
Yesterday
High -- | Low -- °F
Precip. -- in
6:53 AM 8:03 PM
Waxing Crescent, 23% visible
Pressure 29.98 in
Visibility 6.0 miles
Clouds
Dew Point 58 °F
Humidity 40%
Rainfall in
Snow Depth Not available.
UV Not available.
Pollen Not available.
Air Quality Not available.
Flu Activity Not available.
AAXX 30184 16622 12560 21507 10254 20144 30150 40150 53001 60002 82100 333 10288 90730 91113 555 10000 40240 30000 10298 20305 30310 40302 50292

More Conditions Fewer Conditions

Pressure 29.98 in
Visibility 6.0 miles
Clouds
Dew Point 58 °F
Humidity 40%
Rainfall in
Snow Depth Not available.
UV Not available.
Pollen Not available.
Air Quality Not available.
Flu Activity Not available.
AAXX 30184 16622 12560 21507 10254 20144 30150 40150 53001 60002 82100 333 10288 90730 91113 555 10000 40240 30000 10298 20305 30310 40302 50292

More Conditions Fewer Conditions

10-Day Weather Forecast

Almanac

Astronomy

Aug. 30, 2014 Rise Set
Actual Time 6:53 AM EEST 8:03 PM EEST
Civil Twilight 6:24 AM EEST 8:31 PM EEST
Nautical Twilight 5:51 AM EEST 9:05 PM EEST
Astronomical Twilight 5:15 AM EEST 9:40 PM EEST
Moon 11:23 AM EEST 10:24 PM EEST
Length of Visible Light 14h 06m
Length of Day
13h 10m
Tomorrow will be 2m 33s shorter.
Waxing Crescent, 23% of the Moon is Illuminated
Today
Waxing Crescent
Sep 2
First Quarter
Sep 8
Full
Sep 15
Last Quarter
Sep 24
New

Today's Extremes

Country Highs Country Lows

Community

WunderPhotos

Upload Photos

1,748,583 photos uploaded!

WunderBlogs® & News

Nearby

Snow Depth

Not available.

Earthquake Activity

City Distance Mag. Time & Date
No recent earthquake activity has been reported nearby.
Minimum magnitude displayed is 2.5.

Coastal Water Temperatures

Place Temperature
No Stations Reporting

Nearby Weather Stations